Mason Valley, Nevada Weather observations

Data are for observation ending at time listed.
 Day   Time    Ave.   Ave.  Ave.  Vector   Max.   Stn.    Total    Solar   Ave.  
  of    of     Air    Rel.  Wind   Wind    Wind   Baro.  Precip.   Rad.    Soil  
Year   Day     Temp.  Hum.  Speed  Dir.    Gust   Pres.                    Temp. 
2014   (PST)    F      %     mph   deg.    mph     mb.     in.     W/m2     F   
------------------------------------------------------------------------------
 233   21:40   69.9    31    1.9   284      3.8   867.0    0.00       0    88.0
 233   21:50   69.5    31    2.6   260      4.0   867.0    0.00       0    87.7
 233   22:00   67.9    32    0.7   250      2.7   867.0    0.00       0    87.5
 233   22:10   67.0    33    2.5   230      5.1   867.0    0.00       0    87.5
 233   22:20   68.9    31    3.4   234      6.1   867.0    0.00       0    87.2
 233   22:30   67.9    32    3.1   207      5.6   867.0    0.00       0    86.9
 233   22:40   65.1    35    3.4   152      6.1   867.2    0.00       0    86.7
 233   22:50   63.0    38    0.2   322      3.6   867.3    0.00       0    86.7
 233   23:00   63.4    38    1.1   182      3.9   867.3    0.00       0    86.6
 233   23:10   62.9    36    0.8   203      3.1   867.3    0.00       0    86.5
 233   23:20   62.6    37    1.0   173      3.7   867.3    0.00       0    86.3
 233   23:30   60.8    37    1.8   170      6.0   867.4    0.00       0    86.1
 233   23:40   58.8    41    4.4   145      7.1   867.3    0.00       0    86.0
 233   23:50   58.4    44    0.6   121      3.6   867.3    0.00       0    85.8
 234    0:00   60.4    43    3.3   102      5.6   867.3    0.00       0    85.6
 234    0:10   60.7    43    3.7   193      7.0   867.2    0.00       0    85.3
 234    0:20   61.7    40    1.3   247      6.7   867.2    0.00       0    84.8
 234    0:30   60.4    39    2.4    56      4.6   867.2    0.00       0    84.5
 234    0:40   58.8    42    2.3   109      4.0   867.2    0.00       0    84.4
 234    0:50   58.5    42    1.3   222      4.8   867.3    0.00       0    84.3
 234    1:00   59.5    42    2.3   301      6.7   867.3    0.00       0    84.1
 234    1:10   59.9    40    3.3   176      6.7   867.2    0.00       0    83.9
 234    1:20   58.4    42    2.9   225      5.2   867.3    0.00       0    83.6
 234    1:30   58.5    41    2.8   154      4.5   867.3    0.00       0    83.4
 234    1:40   55.8    44    1.3   226      4.1   867.4    0.00       0    83.3
 234    1:50   56.4    43    2.2   136      4.8   867.4    0.00       0    83.2
 234    2:00   57.5    41    1.5   214      5.3   867.3    0.00       0    83.0
 234    2:10   57.5    41    0.7   235      3.7   867.3    0.00       0    82.7
 234    2:20   55.8    42    2.9   153      6.7   867.3    0.00       0    82.7
 234    2:30   56.6    42    2.3   255      3.6   867.3    0.00       0    82.5
 234    2:40   56.7    41    1.1   286      4.0   867.2    0.00       0    82.2
 234    2:50   55.4    43    2.1   160      7.4   867.2    0.00       0    82.0
 234    3:00   53.4    44    2.4    20      4.3   867.2    0.00       0    81.9
 234    3:10   54.1    46    1.7   183      4.3   867.1    0.00       0    81.8
 234    3:20   53.7    44    3.6   189      5.2   867.1    0.00       0    81.6
 234    3:30   54.8    47    0.6   320      4.5   867.1    0.00       0    81.4
 234    3:40   57.4    42    2.8   299      7.0   867.0    0.00       0    81.0
 234    3:50   54.1    45    3.5    97      6.8   867.0    0.00       0    80.7
 234    4:00   52.7    48    2.3   179      4.9   867.0    0.00       0    80.7
 234    4:10   52.8    50    2.6   190      3.6   867.0    0.00       0    80.6
 234    4:20   54.1    47    1.9   185      4.1   867.0    0.00       0    80.4
 234    4:30   53.7    47    3.9   214      5.8   866.9    0.00       0    80.1
 234    4:40   53.8    48    2.1   227      5.6   866.9    0.00       0    80.0
 234    4:50   56.2    43    2.5    28      4.8   866.9    0.00       0    79.8
 234    5:00   53.0    50    3.2    49      6.0   867.0    0.00       0    79.6
 234    5:10   52.3    52    2.5   329      4.2   867.0    0.00       2    79.4
 234    5:20   52.1    52    0.9   256      3.8   867.0    0.00       4    79.4
 234    5:30   51.2    52    0.0     0      0.0   867.1    0.00      12    79.3
 234    5:40   52.2    49    2.3   203      4.6   867.1    0.00      28    79.2
 234    5:50   53.3    49    2.7   220      4.7   867.2    0.00      53    78.8
 234    6:00   56.5    43    1.5   331      3.8   867.3    0.00      86    78.3
 234    6:10   57.1    41    0.9    54      3.1   867.4    0.00     121    77.8
 234    6:20   58.6    39    0.7   128      3.9   867.3    0.00     151    77.3
 234    6:30   61.6    36    0.9    85      2.7   867.4    0.00     182    76.9
 234    6:40   62.9    35    0.4     6      2.9   867.5    0.00     213    76.4
 234    6:50   66.8    32    0.4     1      1.7   867.4    0.00     245    76.0
 234    7:00   69.0    30    1.5    42      3.3   867.4    0.00     280    75.7
 234    7:10   67.3    33    3.9    36      5.0   867.3    0.00     312    75.5
 234    7:20   66.4    37    3.8     8      6.0   867.3    0.00     346    75.5
 234    7:30   69.0    33    1.5    57      3.5   867.3    0.00     380    75.5
 234    7:40   70.7    31    1.7     3      4.6   867.2    0.00     414    75.5
 234    7:50   73.4    29    0.1   327      3.0   867.0    0.00     447    75.4
 234    8:00   74.9    29    3.0   135      6.4   866.9    0.00     479    75.2
 234    8:10   73.0    32    4.4   137      8.6   866.7    0.00     510    75.2
 234    8:20   73.6    32    4.6   103      7.2   866.6    0.00     541    75.2
 234    8:30   73.7    31    5.4    80      8.7   866.5    0.00     573    75.2
 234    8:40   75.5    28    4.6   100      7.5   866.5    0.00     603    75.3
 234    8:50   76.6    27    5.2    87      9.6   866.5    0.00     635    75.2
 234    9:00   77.1    26    5.7   105      9.8   866.5    0.00     663    75.3
 234    9:10   77.8    25    5.7   120     10.7   866.4    0.00     692    75.6
 234    9:20   79.2    22    4.7    90      9.6   866.3    0.00     717    75.7
 234    9:30   80.3    21    4.8    44      9.4   866.2    0.00     740    75.8
 234    9:40   81.4    20    6.6   284     17.4   866.1    0.00     762    75.9
 234    9:50   82.4    20    2.9   146      7.8   866.0    0.00     784    76.0
 234   10:00   84.3    18    7.4   186     16.9   865.9    0.00     807    76.2
 234   10:10   83.8    18    6.2   232     16.9   865.9    0.00     829    76.4
 234   10:20   83.4    18   10.1   248     21.6   865.8    0.00     845    76.7
 234   10:30   83.6    18   15.2   252     26.6   865.7    0.00     862    77.0
 234   10:40   82.8    18   15.7   263     28.7   865.5    0.00     882    77.5
 234   10:50   83.6    17   15.7   253     26.8   865.4    0.00     899    77.8
 234   11:00   83.1    17   15.1   264     27.6   865.2    0.00     915    78.1
 234   11:10   84.0    16   15.5   256     26.7   865.0    0.00     922    78.4
 234   11:20   83.4    16   17.0   252     27.7   865.0    0.00     931    78.5
 234   11:30   83.7    16   15.9   251     25.0   864.9    0.00     938    78.7
 234   11:40   83.8    16   16.2   247     31.2   864.9    0.00     941    78.9
 234   11:50   83.8    16   14.9   247     27.6   864.9    0.00     945    79.2
 234   12:00   84.1    15   12.5   239     24.1   864.8    0.00     943    79.3
 234   12:10   84.4    15   11.0   244     19.2   864.7    0.00     943    79.5
 234   12:20   86.2    14   13.3   230     23.9   864.5    0.00     941    79.6
 234   12:30   85.5    14    8.8   276     17.2   864.5    0.00     940    79.7
 234   12:40   86.3    13   12.5   256     26.3   864.3    0.00     932    80.0
 234   12:50   85.9    13   12.2   247     24.3   864.2    0.00     924    80.2
 234   13:00   86.1    13   15.0   249     24.9   864.1    0.00     915    80.5
 234   13:10   85.7    13   11.9   249     22.3   864.0    0.00     902    80.9
 234   13:20   86.0    13   14.9   239     25.6   863.9    0.00     891    81.2
 234   13:30   87.1    13   13.8   229     24.1   863.8    0.00     879    81.4
 234   13:40   86.8    13   14.5   244     27.6   863.7    0.00     866    81.6
 234   13:50   87.0    13   11.5   241     21.5   863.7    0.00     844    81.9
 234   14:00   86.4    13   13.7   251     22.1   863.6    0.00     825    82.2
 234   14:10   87.2    13   14.0   232     23.0   863.5    0.00     803    82.6
 234   14:20   87.1    13   12.1   248     24.2   863.5    0.00     785    82.9
 234   14:30   87.1    13   13.6   224     22.5   863.4    0.00     729    83.1
 234   14:40   87.3    13   11.0   242     20.7   863.4    0.00     687    83.4
 234   14:50   87.2    12   11.7   267     28.5   863.5    0.00     718    83.7
 234   15:00   86.1    13   10.6   288     24.0   863.5    0.00     688    83.9
 234   15:10   86.3    13    9.2   278     21.6   863.4    0.00     661    84.3
 234   15:20   86.1    12   10.2   265     21.8   863.3    0.00     641    84.5
 234   15:30   86.0    12    9.8   275     18.6   863.4    0.00     611    84.7
 234   15:40   86.1    13    9.3   283     20.0   863.5    0.00     578    84.9
 234   15:50   86.6    13   10.5   300     19.3   863.5    0.00     544    85.0
 234   16:00   86.2    13   11.6   298     21.9   863.5    0.00     519    85.2
 234   16:10   85.7    13   12.9   290     19.6   863.6    0.00     486    85.4
 234   16:20   85.1    14   12.0   296     24.0   863.7    0.00     451    85.7
 234   16:30   84.8    14   12.7   297     24.9   863.7    0.00     416    85.9
 234   16:40   84.5    13   12.9   294     23.3   863.8    0.00     382    86.1
 234   16:50   84.0    14   11.7   291     22.8   863.9    0.00     348    86.3
 234   17:00   83.4    14   12.1   286     20.6   864.0    0.00     312    86.4
 234   17:10   83.0    14   12.6   293     22.3   864.1    0.00     279    86.6
 234   17:20   83.0    14   12.6   299     23.5   864.1    0.00     248    86.7
 234   17:30   82.3    14   12.3   286     24.4   864.1    0.00     214    86.6
 234   17:40   82.0    15   11.0   277     18.0   864.3    0.00     177    86.7
 234   17:50   81.1    16   11.6   265     21.1   864.3    0.00     130    86.8
 234   18:00   80.7    16   11.5   287     18.4   864.4    0.00      63    86.7
 234   18:10   80.0    16   10.5   289     18.7   864.5    0.00      66    86.8
 234   18:20   79.1    17   10.0   285     18.3   864.6    0.00      37    87.0
 234   18:30   78.2    18   10.3   286     18.3   864.7    0.00      12    87.1
 234   18:40   77.6    19    9.0   287     15.3   864.9    0.00       6    87.1
 234   18:50   77.2    20    7.2   282     14.7   865.1    0.00       3    87.1
 234   19:00   76.7    21    6.5   284     13.1   865.3    0.00       1    87.1
 234   19:10   76.2    22    7.2   287     13.6   865.5    0.00       0    87.1
 234   19:20   75.7    23    5.9   272     10.3   865.6    0.00       0    86.9
 234   19:30   75.0    24    3.5   268      7.5   865.8    0.00       0    86.8
 234   19:40   74.5    25    5.2   265     10.2   866.0    0.00       0    86.8
 234   19:50   74.1    24    7.5   259     13.7   866.1    0.00       0    86.6
 234   20:00   73.8    24    8.5   272     15.3   866.1    0.00       0    86.4
 234   20:10   73.7    24    8.7   286     15.2   866.2    0.00       0    86.3
 234   20:20   73.0    24    7.8   288     12.4   866.4    0.00       0    86.1
 234   20:30   72.3    25    5.4   290      9.9   866.6    0.00       0    86.0
 234   20:40   71.7    26    2.3   288      7.3   866.8    0.00       0    86.0
 234   20:50   71.8    26    4.8   281      8.8   867.0    0.00       0    86.0
 234   21:00   71.7    26    6.3   282     12.4   867.0    0.00       0    85.8
 234   21:10   71.2    27    6.3   275     13.6   866.9    0.00       0    85.6
 234   21:20   71.0    27    6.2   275     14.3   867.0    0.00       0    85.3
 234   21:30   70.7    28    6.7   280     11.6   867.0    0.00       0    85.1

Return to Mason Valley, Nevada graphs page.


Western Regional Climate Center,wrcc@dri.edu